createdAt,value
2022-12-23T00:02:23.469Z,21.70
2022-12-23T00:05:25.761Z,21.63
2022-12-23T00:08:28.128Z,19.73
2022-12-23T00:11:30.385Z,20.70
2022-12-23T00:14:51.091Z,19.40
2022-12-23T00:17:53.319Z,20.88
2022-12-23T00:21:08.815Z,21.05
2022-12-23T00:24:12.078Z,21.38
2022-12-23T00:27:14.250Z,19.80
2022-12-23T00:30:16.564Z,20.42
2022-12-23T00:33:21.206Z,20.27
2022-12-23T00:36:28.127Z,21.53
2022-12-23T00:39:54.661Z,19.40
2022-12-23T00:42:57.448Z,21.38
2022-12-23T00:45:59.777Z,20.93
2022-12-23T00:49:20.665Z,19.83
2022-12-23T00:52:22.791Z,19.45
2022-12-23T00:55:25.147Z,20.75
2022-12-23T00:58:27.491Z,19.55
2022-12-23T01:01:48.168Z,18.92
2022-12-23T01:05:08.960Z,18.63
2022-12-23T01:08:12.215Z,17.97
2022-12-23T01:11:14.370Z,19.85
2022-12-23T01:14:17.616Z,18.60
2022-12-23T01:17:19.876Z,18.63
2022-12-23T01:20:22.309Z,17.42
2022-12-23T01:23:24.415Z,19.73
2022-12-23T01:26:26.683Z,17.45
2022-12-23T01:29:29.835Z,16.83
2022-12-23T01:32:32.086Z,18.80
2022-12-23T01:35:34.277Z,18.73
2022-12-23T01:38:36.413Z,17.53
2022-12-23T01:41:57.287Z,18.15
2022-12-23T01:45:09.530Z,17.25
2022-12-23T01:48:31.248Z,18.73
2022-12-23T01:51:33.446Z,16.83
2022-12-23T01:54:36.154Z,16.67
2022-12-23T01:57:42.121Z,17.67
2022-12-23T02:01:05.287Z,18.02
2022-12-23T02:04:10.609Z,16.50
2022-12-23T02:07:31.944Z,17.67
2022-12-23T02:10:53.206Z,15.50
2022-12-23T02:14:52.772Z,17.20
2022-12-23T02:18:22.212Z,17.13
2022-12-23T02:21:32.803Z,15.97
2022-12-23T02:25:25.622Z,17.42
2022-12-23T02:28:39.627Z,17.92
2022-12-23T02:32:00.594Z,17.45
2022-12-23T02:35:29.375Z,17.52
2022-12-23T02:38:58.852Z,15.40
2022-12-23T02:42:13.603Z,17.88
2022-12-23T02:45:26.518Z,17.03
2022-12-23T02:48:37.408Z,16.08
2022-12-23T02:51:42.850Z,16.60
2022-12-23T02:54:57.587Z,17.77
2022-12-23T02:58:04.383Z,15.32
2022-12-23T03:01:07.229Z,18.52
2022-12-23T03:04:09.522Z,15.45
2022-12-23T03:07:18.878Z,16.52
2022-12-23T03:10:52.122Z,17.02
2022-12-23T03:14:09.476Z,17.42
2022-12-23T03:17:14.406Z,17.77
2022-12-23T03:20:36.639Z,16.02
2022-12-23T03:23:55.535Z,16.23
2022-12-23T03:27:03.283Z,18.87
2022-12-23T03:30:12.260Z,17.98
2022-12-23T03:33:26.776Z,19.13
2022-12-23T03:36:32.879Z,17.42
2022-12-23T03:39:41.192Z,19.33
2022-12-23T03:42:45.378Z,19.58
2022-12-23T03:45:56.149Z,18.25
2022-12-23T03:49:01.471Z,17.87
2022-12-23T03:52:08.065Z,17.98
2022-12-23T03:55:14.972Z,19.98
2022-12-23T03:58:40.178Z,18.87
2022-12-23T04:02:11.383Z,18.92
2022-12-23T04:05:22.647Z,19.05
2022-12-23T04:08:28.599Z,17.63
2022-12-23T04:11:30.743Z,17.48
2022-12-23T04:14:34.164Z,18.92
2022-12-23T04:17:36.348Z,18.98
2022-12-23T04:20:38.498Z,17.73
2022-12-23T04:23:40.649Z,20.50
2022-12-23T04:26:42.870Z,18.90
2022-12-23T04:29:45.170Z,19.17
2022-12-23T04:32:47.421Z,18.95
2022-12-23T04:35:49.572Z,17.60
2022-12-23T04:38:51.733Z,18.55
2022-12-23T04:41:53.836Z,19.50
2022-12-23T04:44:55.967Z,19.98
2022-12-23T04:47:58.519Z,20.23
2022-12-23T04:51:04.708Z,19.13
2022-12-23T04:54:06.859Z,18.73
2022-12-23T04:57:08.993Z,18.45
2022-12-23T05:00:11.552Z,19.90
2022-12-23T05:03:13.831Z,19.13
2022-12-23T05:06:16.164Z,19.15
2022-12-23T05:09:18.410Z,19.23
2022-12-23T05:12:20.560Z,17.38
2022-12-23T05:15:22.709Z,19.17
2022-12-23T05:18:24.897Z,19.83
2022-12-23T05:21:27.033Z,20.23
2022-12-23T05:24:29.196Z,19.58
2022-12-23T05:27:31.296Z,17.38
2022-12-23T05:30:33.784Z,20.30
2022-12-23T05:33:36.043Z,18.08
2022-12-23T05:36:38.264Z,18.40
2022-12-23T05:39:40.498Z,17.90
2022-12-23T05:42:42.637Z,18.73
2022-12-23T05:45:47.035Z,19.60
2022-12-23T05:48:49.261Z,17.80
2022-12-23T05:51:51.416Z,17.03
2022-12-23T05:54:53.665Z,17.25
2022-12-23T05:57:55.777Z,17.05
2022-12-23T06:00:57.938Z,17.63
2022-12-23T06:04:00.165Z,17.08
2022-12-23T06:07:02.435Z,19.00
2022-12-23T06:10:06.242Z,16.75
2022-12-23T06:13:08.475Z,16.27
2022-12-23T06:16:10.673Z,18.02
2022-12-23T06:19:12.921Z,16.65
2022-12-23T06:22:15.830Z,17.00
2022-12-23T06:25:18.027Z,17.48
2022-12-23T06:28:20.280Z,15.80
2022-12-23T06:31:22.440Z,17.43
2022-12-23T06:34:24.613Z,16.23
2022-12-23T06:37:26.706Z,16.80
2022-12-23T06:40:29.673Z,16.98
2022-12-23T06:43:31.844Z,15.55
2022-12-23T06:46:34.147Z,17.38
2022-12-23T06:49:36.279Z,16.80
2022-12-23T06:52:38.396Z,15.87
2022-12-23T06:55:40.478Z,15.63
2022-12-23T06:58:42.576Z,16.25
2022-12-23T07:01:44.788Z,15.87
2022-12-23T07:04:47.028Z,14.52
2022-12-23T07:07:49.183Z,14.88
2022-12-23T07:10:57.566Z,15.48
2022-12-23T07:14:00.397Z,16.30
2022-12-23T07:17:02.613Z,14.38
2022-12-23T07:20:05.848Z,15.23
2022-12-23T07:23:07.995Z,14.10
2022-12-23T07:26:10.113Z,16.23
2022-12-23T07:29:12.186Z,14.88
2022-12-23T07:32:14.361Z,13.60
2022-12-23T07:35:16.819Z,14.27
2022-12-23T07:38:18.915Z,13.88
2022-12-23T07:41:21.122Z,15.35
2022-12-23T07:44:23.270Z,13.18
2022-12-23T07:47:25.420Z,15.23
2022-12-23T07:50:28.175Z,15.75
2022-12-23T07:53:30.565Z,14.37
2022-12-23T07:56:32.732Z,14.68
2022-12-23T07:59:34.838Z,14.55
2022-12-23T08:02:37.242Z,14.30
2022-12-23T08:05:39.412Z,14.13
2022-12-23T08:08:43.628Z,13.95
2022-12-23T08:11:45.935Z,14.07
2022-12-23T08:14:48.519Z,12.35
2022-12-23T08:17:50.706Z,13.02
2022-12-23T08:21:00.680Z,13.10
2022-12-23T08:24:02.810Z,13.83
2022-12-23T08:27:04.925Z,14.75
2022-12-23T08:30:07.597Z,13.32
2022-12-23T08:33:09.766Z,12.90
2022-12-23T08:36:22.478Z,12.80
2022-12-23T08:39:25.472Z,13.27
2022-12-23T08:42:27.576Z,13.43
2022-12-23T08:45:29.734Z,13.45
2022-12-23T08:48:33.197Z,12.93
2022-12-23T08:51:36.335Z,12.25
2022-12-23T08:54:38.474Z,12.50
2022-12-23T08:57:40.682Z,13.32
2022-12-23T09:00:42.916Z,13.05
2022-12-23T09:03:45.339Z,12.00
2022-12-23T09:06:47.550Z,12.32
2022-12-23T09:09:49.684Z,13.20
2022-12-23T09:12:51.838Z,13.68
2022-12-23T09:15:53.983Z,12.60
2022-12-23T09:18:56.581Z,12.75
2022-12-23T09:21:58.724Z,12.75
2022-12-23T09:25:05.064Z,11.50
2022-12-23T09:28:07.509Z,12.93
2022-12-23T09:31:10.972Z,11.95
2022-12-23T09:34:13.195Z,12.07
2022-12-23T09:37:16.793Z,11.93
2022-12-23T09:40:21.427Z,11.98
2022-12-23T09:43:39.941Z,12.45
2022-12-23T09:47:07.475Z,12.35
2022-12-23T09:50:26.923Z,11.80
2022-12-23T09:54:17.082Z,11.45
2022-12-23T09:57:36.507Z,11.47
2022-12-23T10:00:42.887Z,11.30
2022-12-23T10:03:59.772Z,10.95
2022-12-23T10:07:04.966Z,13.27
2022-12-23T10:10:43.247Z,11.82
2022-12-23T10:13:47.699Z,11.52
2022-12-23T10:16:52.997Z,11.85
2022-12-23T10:19:58.417Z,12.30
2022-12-23T10:23:00.752Z,13.43
2022-12-23T10:26:08.646Z,11.02
2022-12-23T10:29:19.228Z,12.23
2022-12-23T10:32:55.500Z,11.52
2022-12-23T10:36:16.412Z,12.30
2022-12-23T10:39:47.047Z,11.20
2022-12-23T10:43:10.922Z,11.73
2022-12-23T10:46:30.073Z,11.70
2022-12-23T10:49:32.176Z,11.68
2022-12-23T10:52:36.343Z,11.15
2022-12-23T10:55:39.050Z,12.13
2022-12-23T10:58:42.574Z,10.52
2022-12-23T11:01:47.719Z,13.07
2022-12-23T11:04:50.399Z,12.13
2022-12-23T11:07:52.607Z,10.88
2022-12-23T11:10:55.220Z,11.40
2022-12-23T11:13:57.321Z,11.73
2022-12-23T11:16:59.416Z,11.02
2022-12-23T11:20:10.454Z,11.63
2022-12-23T11:23:27.551Z,11.75
2022-12-23T11:26:29.749Z,12.85
2022-12-23T11:29:37.628Z,12.70
2022-12-23T11:32:42.524Z,11.90
2022-12-23T11:35:45.396Z,12.95
2022-12-23T11:38:54.055Z,12.88
2022-12-23T11:42:06.195Z,13.80
2022-12-23T11:45:08.975Z,12.90
2022-12-23T11:48:28.196Z,12.57
2022-12-23T11:51:30.322Z,13.82
2022-12-23T11:54:33.687Z,12.65
2022-12-23T11:57:42.364Z,13.77
2022-12-23T12:00:55.482Z,13.05
2022-12-23T12:04:01.581Z,11.83
2022-12-23T12:07:05.023Z,12.43
2022-12-23T12:10:13.737Z,12.73
2022-12-23T12:13:25.329Z,12.40
2022-12-23T12:16:30.536Z,14.35
2022-12-23T12:19:40.871Z,12.93
2022-12-23T12:22:51.861Z,12.23
2022-12-23T12:26:06.668Z,13.45
2022-12-23T12:29:27.108Z,14.75
2022-12-23T12:32:47.992Z,13.30
2022-12-23T12:36:24.896Z,14.90
2022-12-23T12:39:34.251Z,13.98
2022-12-23T12:42:40.719Z,12.65
2022-12-23T12:45:50.812Z,13.17
2022-12-23T12:48:57.749Z,12.48
2022-12-23T12:52:10.239Z,12.15
2022-12-23T12:55:28.990Z,12.98
2022-12-23T12:58:31.179Z,12.23
2022-12-23T13:01:46.177Z,13.50
2022-12-23T13:05:23.005Z,13.00
2022-12-23T13:08:51.130Z,12.67
2022-12-23T13:12:04.516Z,14.32
2022-12-23T13:15:20.581Z,13.70
2022-12-23T13:18:41.497Z,12.67
2022-12-23T13:21:48.545Z,13.45
2022-12-23T13:25:03.093Z,12.25
2022-12-23T13:28:15.575Z,13.77
2022-12-23T13:32:18.359Z,12.38
2022-12-23T13:35:35.574Z,14.27
2022-12-23T13:38:59.661Z,14.32
2022-12-23T13:42:05.978Z,14.20
2022-12-23T13:45:16.836Z,14.38
2022-12-23T13:48:43.420Z,13.25
2022-12-23T13:51:53.441Z,14.30
2022-12-23T13:55:11.585Z,13.98
2022-12-23T13:58:16.738Z,14.15
2022-12-23T14:01:22.068Z,13.13
2022-12-23T14:04:33.944Z,14.50
2022-12-23T14:07:36.219Z,14.20
2022-12-23T14:10:39.008Z,15.23
2022-12-23T14:14:46.596Z,12.57
2022-12-23T14:18:04.449Z,14.25
2022-12-23T14:21:45.520Z,14.38
2022-12-23T14:25:18.772Z,12.80
2022-12-23T14:28:39.638Z,12.00
2022-12-23T14:31:44.282Z,14.10
2022-12-23T14:35:18.438Z,12.20
2022-12-23T14:38:28.838Z,12.90
2022-12-23T14:41:50.437Z,13.10
2022-12-23T14:44:52.780Z,14.35
2022-12-23T14:47:54.965Z,14.77
2022-12-23T14:51:24.183Z,16.33
2022-12-23T14:55:06.031Z,14.32
2022-12-23T14:58:27.000Z,13.83
2022-12-23T15:01:40.929Z,13.63
2022-12-23T15:04:48.047Z,14.88
2022-12-23T15:07:50.469Z,13.60
2022-12-23T15:10:53.531Z,14.30
2022-12-23T15:13:58.798Z,13.52
2022-12-23T15:17:15.609Z,16.40
2022-12-23T15:20:23.342Z,15.50
2022-12-23T15:23:25.498Z,14.63
2022-12-23T15:26:30.928Z,14.77
2022-12-23T15:29:33.150Z,14.00
2022-12-23T15:32:35.330Z,13.48
2022-12-23T15:35:39.708Z,15.35
2022-12-23T15:38:42.024Z,14.88
2022-12-23T15:41:45.666Z,15.00
2022-12-23T15:44:47.818Z,13.15
2022-12-23T15:47:50.682Z,13.95
2022-12-23T15:50:56.090Z,14.33
2022-12-23T15:54:02.034Z,14.07
2022-12-23T15:57:05.015Z,13.40
2022-12-23T16:00:18.747Z,14.73
2022-12-23T16:03:28.085Z,16.13
2022-12-23T16:06:33.129Z,15.27
2022-12-23T16:09:36.654Z,14.30
2022-12-23T16:12:40.458Z,16.42
2022-12-23T16:15:44.315Z,14.68
2022-12-23T16:18:47.784Z,14.70
2022-12-23T16:21:50.466Z,15.17
2022-12-23T16:25:09.791Z,14.02
2022-12-23T16:28:15.115Z,14.55
2022-12-23T16:31:19.045Z,15.33
2022-12-23T16:34:21.384Z,15.10
2022-12-23T16:37:23.554Z,14.63
2022-12-23T16:40:25.741Z,15.27
2022-12-23T16:43:27.926Z,13.93
2022-12-23T16:46:34.179Z,15.52
2022-12-23T16:49:37.399Z,12.77
2022-12-23T16:52:39.898Z,15.63
2022-12-23T16:55:50.292Z,13.05
2022-12-23T16:58:54.766Z,13.90
2022-12-23T17:02:03.167Z,13.77
2022-12-23T17:05:07.792Z,14.27
2022-12-23T17:08:10.131Z,14.25
2022-12-23T17:11:27.724Z,13.65
2022-12-23T17:14:32.993Z,14.85
2022-12-23T17:17:35.832Z,14.88
2022-12-23T17:20:38.000Z,13.75
2022-12-23T17:23:40.119Z,15.20
2022-12-23T17:26:42.320Z,17.00
2022-12-23T17:29:44.552Z,15.77
2022-12-23T17:32:50.371Z,14.17
2022-12-23T17:35:52.496Z,13.88
2022-12-23T17:38:54.991Z,15.05
2022-12-23T17:41:57.412Z,15.00
2022-12-23T17:44:59.535Z,13.75
2022-12-23T17:48:01.694Z,17.02
2022-12-23T17:51:03.843Z,15.18
2022-12-23T17:54:06.484Z,13.97
2022-12-23T17:57:19.139Z,14.38
2022-12-23T18:00:29.921Z,14.07
2022-12-23T18:03:36.303Z,14.43
2022-12-23T18:06:38.450Z,15.52
2022-12-23T18:09:40.623Z,15.93
2022-12-23T18:12:45.613Z,14.38
2022-12-23T18:15:47.830Z,15.07
2022-12-23T18:18:50.037Z,13.98
2022-12-23T18:21:52.465Z,14.95
2022-12-23T18:24:59.086Z,14.57
2022-12-23T18:28:01.747Z,15.73
2022-12-23T18:31:04.084Z,14.38
2022-12-23T18:34:06.321Z,13.60
2022-12-23T18:37:09.004Z,13.95
2022-12-23T18:40:11.538Z,14.93
2022-12-23T18:43:24.485Z,14.68
2022-12-23T18:46:26.875Z,14.85
2022-12-23T18:49:29.023Z,15.68
2022-12-23T18:52:31.111Z,16.83
2022-12-23T18:55:33.671Z,14.17
2022-12-23T18:58:35.774Z,14.07
2022-12-23T19:01:37.894Z,13.40
2022-12-23T19:04:40.128Z,13.40
2022-12-23T19:07:42.466Z,12.00
2022-12-23T19:10:46.146Z,13.25
2022-12-23T19:13:48.316Z,13.82
2022-12-23T19:16:52.407Z,13.52
2022-12-23T19:19:54.837Z,12.43
2022-12-23T19:22:56.965Z,14.07
2022-12-23T19:25:59.087Z,14.27
2022-12-23T19:29:01.245Z,12.98
2022-12-23T19:32:03.459Z,13.75
2022-12-23T19:35:06.103Z,14.23
2022-12-23T19:38:08.252Z,13.00
2022-12-23T19:41:10.659Z,14.55
2022-12-23T19:44:13.012Z,13.02
2022-12-23T19:47:15.177Z,12.43
2022-12-23T19:50:18.879Z,12.98
2022-12-23T19:53:20.998Z,14.32
2022-12-23T19:56:23.145Z,12.80
2022-12-23T19:59:25.313Z,12.10
2022-12-23T20:02:27.540Z,13.40
2022-12-23T20:05:29.769Z,12.83
2022-12-23T20:08:33.202Z,14.27
2022-12-23T20:11:37.568Z,13.27
2022-12-23T20:14:39.717Z,13.07
2022-12-23T20:17:41.804Z,12.32
2022-12-23T20:20:44.445Z,11.65
2022-12-23T20:23:46.543Z,13.48
2022-12-23T20:26:48.751Z,12.00
2022-12-23T20:29:50.965Z,13.50
2022-12-23T20:32:53.138Z,11.95
2022-12-23T20:35:55.356Z,10.40
2022-12-23T20:38:58.001Z,11.65
2022-12-23T20:42:00.112Z,12.00
2022-12-23T20:45:02.439Z,11.95
2022-12-23T20:48:04.900Z,11.95
2022-12-23T20:51:12.249Z,11.88
2022-12-23T20:54:14.366Z,10.80
2022-12-23T20:57:16.546Z,11.80
2022-12-23T21:00:18.850Z,12.07
2022-12-23T21:03:21.107Z,12.38
2022-12-23T21:06:24.001Z,11.87
2022-12-23T21:09:26.204Z,10.85
2022-12-23T21:12:28.377Z,11.73
2022-12-23T21:15:34.136Z,11.23
2022-12-23T21:18:40.219Z,11.32
2022-12-23T21:21:42.349Z,11.50
2022-12-23T21:24:44.493Z,12.68
2022-12-23T21:27:46.656Z,10.97
2022-12-23T21:30:48.821Z,10.60
2022-12-23T21:33:51.746Z,11.32
2022-12-23T21:36:54.018Z,10.80
2022-12-23T21:39:56.241Z,12.45
2022-12-23T21:42:59.966Z,12.70
2022-12-23T21:46:06.402Z,12.07
2022-12-23T21:49:09.395Z,10.43
2022-12-23T21:52:11.576Z,11.75
2022-12-23T21:55:15.995Z,11.75
2022-12-23T21:58:18.091Z,10.77
2022-12-23T22:01:21.004Z,12.65
2022-12-23T22:04:23.237Z,13.50
2022-12-23T22:07:25.366Z,12.50
2022-12-23T22:10:27.525Z,12.60
2022-12-23T22:13:29.691Z,12.30
2022-12-23T22:16:32.719Z,12.32
2022-12-23T22:19:34.954Z,11.10
2022-12-23T22:22:37.033Z,11.07
2022-12-23T22:25:39.180Z,12.68
2022-12-23T22:28:41.373Z,13.43
2022-12-23T22:31:48.853Z,12.90
2022-12-23T22:34:51.089Z,12.70
2022-12-23T22:37:53.366Z,14.30
2022-12-23T22:40:55.686Z,12.30
2022-12-23T22:43:58.584Z,11.48
2022-12-23T22:47:00.974Z,12.45
2022-12-23T22:50:03.495Z,12.43
2022-12-23T22:53:05.660Z,13.00
2022-12-23T22:56:08.042Z,12.93
2022-12-23T22:59:21.068Z,12.30
2022-12-23T23:02:24.925Z,11.95
2022-12-23T23:05:27.182Z,12.07
2022-12-23T23:08:30.614Z,12.77
2022-12-23T23:11:33.238Z,11.88
2022-12-23T23:14:52.413Z,12.65
2022-12-23T23:17:55.829Z,11.93
2022-12-23T23:20:58.035Z,11.90
2022-12-23T23:24:00.129Z,12.77
2022-12-23T23:27:02.237Z,14.52
2022-12-23T23:30:04.895Z,12.03
2022-12-23T23:33:08.676Z,13.02
2022-12-23T23:36:11.237Z,11.65
2022-12-23T23:39:13.625Z,10.77
2022-12-23T23:42:17.830Z,11.90
2022-12-23T23:45:20.237Z,13.02
2022-12-23T23:48:22.465Z,11.10
2022-12-23T23:51:24.598Z,12.00
2022-12-23T23:54:26.771Z,11.77
2022-12-23T23:57:29.193Z,12.05
